Home > Products > Valid Products > MTR

000
SAUS46 KMFR 061137
MTRSXT
SPECI KSXT 061136Z AUTO 19009KT 1/4SM FG VV002 05/04 A3036 RMK AO2
P0007 T00500044





000
SAUS46 KMFR 061123
MTRSXT
SPECI KSXT 061122Z AUTO 20009KT 1/2SM FG VV002 05/04 A3036 RMK AO2
P0007 T00500044





000
SAUS46 KMFR 061057
MTRSXT
METAR KSXT 061056Z AUTO 21012KT 1/4SM FG VV002 05/04 A3036 RMK AO2
RAB0959E20 SLP285 P0013 T00500044





000
SAUS46 KMFR 061025
MTRSXT
SPECI KSXT 061024Z AUTO 21010G16KT 1/4SM FG VV002 04/04 A3037 RMK
AO2 RAB0959E20 P0006 T00440044





000
SAUS46 KMFR 061017
MTRSXT
SPECI KSXT 061015Z AUTO 20009KT 1/2SM -RA FG VV002 04/04 A3037 RMK
AO2 RAB0959 P0006 T00440044





000
SAUS46 KMFR 061017
MTRSXT
SPECI KSXT 061015Z AUTO 20009KT 1/2SM -RA FG VV002 04/04 A3037 RMK
AO2 RAB0959 P0006 T00440044





000
SAUS46 KMFR 061005
MTRSXT
SPECI KSXT 061004Z AUTO 19010G16KT 1/4SM -RA FG VV002 04/04 A3036
RMK AO2 RAB0959 P0002 T00440044





000
SAUS46 KMFR 060957
MTRSXT
METAR KSXT 060956Z AUTO 19009KT 1/4SM FG VV001 04/04 A3036 RMK AO2
SLP286 P0003 T00440044





000
SAUS46 KMFR 060918
MTRSXT
SPECI KSXT 060916Z AUTO 19009KT 1/4SM FG VV002 04/04 A3036 RMK AO2
P0003 T00440039





000
SAUS46 KMFR 060910
MTRSXT
SPECI KSXT 060909Z AUTO 18009KT 1/2SM FG VV003 04/04 A3036 RMK AO2
T00440044





000
SAUS46 KMFR 060910
MTRSXT
SPECI KSXT 060909Z AUTO 18009KT 1/2SM FG VV003 04/04 A3036 RMK AO2
T00440044





000
SAUS46 KMFR 060857
MTRSXT
METAR KSXT 060856Z AUTO 18008KT 1/2SM FG BKN008 OVC014 04/04 A3036
RMK AO2 RAE24 SLP287 P0004 60007 T00440039 50009





000
SAUS46 KMFR 060857
MTRSXT
METAR KSXT 060856Z AUTO 18008KT 1/2SM FG BKN008 OVC014 04/04 A3036
RMK AO2 RAE24 SLP287 P0004 60007 T00440039 50009





000
SAUS46 KMFR 060848
MTRSXT
SPECI KSXT 060847Z AUTO 16008KT 3/4SM BR VV011 04/04 A3036 RMK AO2
RAE24 P0001 T00440039





000
SAUS46 KMFR 060848
MTRSXT
SPECI KSXT 060847Z AUTO 16008KT 3/4SM BR VV011 04/04 A3036 RMK AO2
RAE24 P0001 T00440039





000
SAUS46 KMFR 060841
MTRSXT
SPECI KSXT 060840Z AUTO 18006KT 1 1/2SM BR FEW008 OVC014 04/04 A3037
RMK AO2 RAE24 P0000 T00440039





000
SAUS46 KMFR 060841
MTRSXT
SPECI KSXT 060840Z AUTO 18006KT 1 1/2SM BR FEW008 OVC014 04/04 A3037
RMK AO2 RAE24 P0000 T00440039





000
SAUS46 KMFR 060831
MTRSXT
SPECI KSXT 060830Z AUTO 17005KT 3/4SM BR SCT008 OVC014 04/04 A3038
RMK AO2 RAE24 P0000 T00440039





000
SAUS46 KMFR 060822
MTRSXT
SPECI KSXT 060821Z AUTO 17004KT 3/4SM -RA BR BKN009 OVC012 04/04
A3038 RMK AO2 P0000 T00390039





000
SAUS46 KMFR 060816
MTRSXT
SPECI KSXT 060816Z AUTO 17004KT 1 3/4SM -RA BR OVC009 04/04 A3038
RMK AO2 P0000 T00440039





000
SAUS46 KMFR 060800
MTRMHS
METAR KMHS 060756Z AUTO 00000KT 10SM OVC085 05/M01 A3042 RMK AO2
SLPNO T00501006 401281033





000
SAUS46 KMFR 060757
MTRSXT
METAR KSXT 060756Z AUTO 17003KT 7SM -RA OVC005 04/04 A3038 RMK AO2
CIG 004V008 SLP291 P0003 T00440039 400780022





000
SAUS46 KMFR 060710
MTRSXT
SPECI KSXT 060709Z AUTO 00000KT 10SM -RA BKN006 OVC010 04/04 A3037
RMK AO2 CIG 005V008 P0000 T00440039





000
SAUS46 KMFR 060710
MTRSXT
SPECI KSXT 060709Z AUTO 00000KT 10SM -RA BKN006 OVC010 04/04 A3037
RMK AO2 CIG 005V008 P0000 T00440039





000
SAUS46 KMFR 060657
MTRSXT
METAR KSXT 060656Z AUTO 22006KT 10SM -RA OVC010 04/03 A3037 RMK AO2
RAB30 CIG 007V012 SLP287 P0000 T00440033





000
SAUS46 KMFR 060657
MTRSXT
METAR KSXT 060656Z AUTO 22006KT 10SM -RA OVC010 04/03 A3037 RMK AO2
RAB30 CIG 007V012 SLP287 P0000 T00440033





000
SAUS46 KMFR 060631
MTRSXT
SPECI KSXT 060630Z AUTO 20008KT 10SM -RA FEW007 OVC014 04/03 A3035
RMK AO2 RAB30 P0000 T00440033





000
SAUS46 KMFR 060631
MTRSXT
SPECI KSXT 060630Z AUTO 20008KT 10SM -RA FEW007 OVC014 04/03 A3035
RMK AO2 RAB30 P0000 T00440033





000
SAUS46 KMFR 060624
MTRSXT
SPECI KSXT 060623Z AUTO 20009KT 10SM SCT007 OVC016 04/03 A3035 RMK
AO2 T00440028





000
SAUS46 KMFR 060624
MTRSXT
SPECI KSXT 060623Z AUTO 20009KT 10SM SCT007 OVC016 04/03 A3035 RMK
AO2 T00440028





000
SAUS46 KMFR 060600
MTRMHS
METAR KMHS 060556Z AUTO 00000KT 9SM OVC100 05/M01 A3042 RMK AO2
SLPNO T00501011 10122 20050 51006





000
SAUS46 KMFR 060600
MTRMHS
METAR KMHS 060556Z AUTO 00000KT 9SM OVC100 05/M01 A3042 RMK AO2
SLPNO T00501011 10122 20050 51006





000
SAUS46 KMFR 060558
MTRSXT
METAR KSXT 060556Z AUTO 21014G22KT 10SM BKN008 OVC014 04/03 A3033
RMK AO2 CIG 007V010 SLP279 P0002 60002 T00440028 10072 20044 53003





000
SAUS46 KMFR 060558
MTRSXT
METAR KSXT 060556Z AUTO 21014G22KT 10SM BKN008 OVC014 04/03 A3033
RMK AO2 CIG 007V010 SLP279 P0002 60002 T00440028 10072 20044 53003





000
SAUS46 KMFR 060524
MTRSXT
SPECI KSXT 060522Z AUTO 20013G23KT 10SM OVC013 05/02 A3032 RMK AO2
P0002 T00500022





000
SAUS46 KMFR 060512
MTRSXT
SPECI KSXT 060511Z AUTO 20016G25KT 160V220 10SM OVC015 05/02 A3031
RMK AO2 P0002 T00500022





000
SAUS46 KMFR 060512
MTRSXT
SPECI KSXT 060511Z AUTO 20016G25KT 160V220 10SM OVC015 05/02 A3031
RMK AO2 P0002 T00500022





000
SAUS46 KMFR 060457
MTRSXT
METAR KSXT 060456Z AUTO 19016G25KT 10SM OVC014 05/02 A3030 RMK AO2
RAB08E23 SLP269 P0000 T00500017





000
SAUS46 KMFR 060457
MTRSXT
METAR KSXT 060456Z AUTO 19016G25KT 10SM OVC014 05/02 A3030 RMK AO2
RAB08E23 SLP269 P0000 T00500017





000
SAUS46 KMFR 060400
MTRMHS
METAR KMHS 060356Z AUTO 00000KT 10SM FEW120 07/M01 A3041 RMK AO2
SLP331 T00671011





000
SAUS46 KMFR 060357
MTRSXT
METAR KSXT 060356Z AUTO 20016G26KT 10SM OVC019 05/01 A3032 RMK AO2
PK WND 21027/0337 SLP276 T00500011





000
SAUS46 KMFR 060357
MTRSXT
METAR KSXT 060356Z AUTO 20016G26KT 10SM OVC019 05/01 A3032 RMK AO2
PK WND 21027/0337 SLP276 T00500011





000
SAUS46 KMFR 060257
MTRSXT
METAR KSXT 060256Z AUTO 19013G26KT 10SM OVC023 06/00 A3032 RMK AO2
PK WND 20026/0248 SLP277 T00560000 51016





000
SAUS46 KMFR 060257
MTRSXT
METAR KSXT 060256Z AUTO 19013G26KT 10SM OVC023 06/00 A3032 RMK AO2
PK WND 20026/0248 SLP277 T00560000 51016





000
SAUS46 KMFR 060223
MTRSXT
SPECI KSXT 060222Z AUTO 20011G18KT 10SM OVC029 06/M02 A3033 RMK AO2
T00561022





000
SAUS46 KMFR 060206
MTRSXT
SPECI KSXT 060205Z AUTO 20010KT 10SM OVC030 06/M03 A3032 RMK AO2
T00611033





000
SAUS46 KMFR 060157
MTRSXT
METAR KSXT 060156Z AUTO 20009KT 10SM OVC029 07/M03 A3032 RMK AO2
SLP276 T00671033





000
SAUS46 KMFR 060157
MTRSXT
METAR KSXT 060156Z AUTO 20009KT 10SM OVC029 07/M03 A3032 RMK AO2
SLP276 T00671033





000
SAUS46 KMFR 060150
MTRSXT
SPECI KSXT 060148Z AUTO 20010KT 10SM BKN029 OVC038 07/M04 A3032 RMK
AO2 T00671044





000
SAUS46 KMFR 060150
MTRSXT
SPECI KSXT 060148Z AUTO 20010KT 10SM BKN029 OVC038 07/M04 A3032 RMK
AO2 T00671044





000
SAUS46 KMFR 060057
MTRSXT
METAR KSXT 060056Z AUTO 22009G18KT 200V260 10SM CLR 07/M04 A3030 RMK
AO2 PK WND 17026/2357 SLP269 T00671039





000
SAUS46 KMFR 060057
MTRSXT
METAR KSXT 060056Z AUTO 22009G18KT 200V260 10SM CLR 07/M04 A3030 RMK
AO2 PK WND 17026/2357 SLP269 T00671039





000
SAUS46 KMFR 052357
MTRSXT
METAR KSXT 052356Z AUTO 18016G29KT 10SM CLR 07/M04 A3027 RMK AO2 PK
WND 18029/2337 SLP257 T00721044 10078 20050 56013





000
SAUS46 KMFR 052357
MTRSXT
METAR KSXT 052356Z AUTO 18016G29KT 10SM CLR 07/M04 A3027 RMK AO2 PK
WND 18029/2337 SLP257 T00721044 10078 20050 56013





000
SAUS46 KMFR 052257
MTRSXT
METAR KSXT 052256Z AUTO 18017G26KT 10SM FEW110 07/M03 A3028 RMK AO2
PK WND 19028/2240 SLP259 T00671033





000
SAUS46 KMFR 052257
MTRSXT
METAR KSXT 052256Z AUTO 18017G26KT 10SM FEW110 07/M03 A3028 RMK AO2
PK WND 19028/2240 SLP259 T00671033





000
SAUS46 KMFR 052157
MTRSXT
METAR KSXT 052156Z AUTO 19016G28KT 10SM CLR 07/M03 A3029 RMK AO2 PK
WND 20030/2145 SLP264 T00671033





000
SAUS46 KMFR 052057
MTRSXT
METAR KSXT 052056Z AUTO 20014G22KT 10SM CLR 06/M02 A3031 RMK AO2
SLP274 T00611022 51003





000
SAUS46 KMFR 052057
MTRSXT
METAR KSXT 052056Z AUTO 20014G22KT 10SM CLR 06/M02 A3031 RMK AO2
SLP274 T00611022 51003





000
SAUS46 KMFR 051957
MTRSXT
METAR KSXT 051956Z AUTO 19011G22KT 10SM CLR 07/M03 A3031 RMK AO2
SLP272 T00671028





000
SAUS46 KMFR 051900
MTRMHS
METAR KMHS 051856Z AUTO A3041 RMK AO2 SLPNO PWINO FZRANO PNO $





000
SAUS46 KMFR 051900
MTRMHS
METAR KMHS 051856Z AUTO A3041 RMK AO2 SLPNO PWINO FZRANO PNO $





000
SAUS46 KMFR 051857
MTRSXT
METAR KSXT 051856Z AUTO 16010G17KT 10SM CLR 07/M02 A3032 RMK AO2
SLP272 T00721017





000
SAUS46 KMFR 051757
MTRSXT
METAR KSXT 051756Z AUTO 13012KT 10SM CLR 05/M03 A3030 RMK AO2 SLP273
T00501028 10050 20028 55001





000
SAUS46 KMFR 051757
MTRSXT
METAR KSXT 051756Z AUTO 13012KT 10SM CLR 05/M03 A3030 RMK AO2 SLP273
T00501028 10050 20028 55001





000
SAUS46 KMFR 051657
MTRSXT
METAR KSXT 051656Z AUTO 13014KT 10SM CLR 04/M02 A3030 RMK AO2 SLP272
T00441022





000
SAUS46 KMFR 051657
MTRSXT
METAR KSXT 051656Z AUTO 13014KT 10SM CLR 04/M02 A3030 RMK AO2 SLP272
T00441022





000
SAUS46 KMFR 051557
MTRSXT
METAR KSXT 051556Z AUTO 14013KT 10SM FEW120 03/M03 A3030 RMK AO2
SLP275 T00331028





000
SAUS46 KMFR 051500
MTRMHS
METAR KMHS 051456Z AUTO 07003KT 10SM CLR M02/M04 A3041 RMK AO2
SLP338 I3000 T10221044 58003





000
SAUS46 KMFR 051500
MTRMHS
METAR KMHS 051456Z AUTO 07003KT 10SM CLR M02/M04 A3041 RMK AO2
SLP338 I3000 T10221044 58003





000
SAUS46 KMFR 051457
MTRSXT
METAR KSXT 051456Z AUTO 14014KT 10SM CLR 03/M03 A3031 RMK AO2 SLP279
T00281028 58006





000
SAUS46 KMFR 051457
MTRSXT
METAR KSXT 051456Z AUTO 14014KT 10SM CLR 03/M03 A3031 RMK AO2 SLP279
T00281028 58006





000
SAUS46 KMFR 051400
MTRMHS
METAR KMHS 051356Z AUTO 00000KT 10SM CLR M03/M05 A3041 RMK AO2
SLP337 I1000 T10281050





000
SAUS46 KMFR 051357
MTRSXT
METAR KSXT 051356Z AUTO 13013KT 10SM OVC110 03/M02 A3032 RMK AO2
SLP280 T00331022





000
SAUS46 KMFR 051257
MTRSXT
METAR KSXT 051256Z AUTO 13015KT 10SM CLR 03/M02 A3032 RMK AO2 SLP280
T00281017





000
SAUS46 KMFR 051257
MTRSXT
METAR KSXT 051256Z AUTO 13015KT 10SM CLR 03/M02 A3032 RMK AO2 SLP280
T00281017





000
SAUS46 KMFR 051157
MTRSXT
METAR KSXT 051156Z AUTO 12015KT 10SM CLR 03/M02 A3033 RMK AO2 SLP282
70017 T00281017 10033 20022 58005





000
SAUS46 KMFR 051157
MTRSXT
METAR KSXT 051156Z AUTO 12015KT 10SM CLR 03/M02 A3033 RMK AO2 SLP282
70017 T00281017 10033 20022 58005





000
SAUS46 KMFR 051057
MTRSXT
METAR KSXT 051056Z AUTO 12015G22KT 10SM CLR 03/M01 A3034 RMK AO2
SLP283 T00281011





000
SAUS46 KMFR 051057
MTRSXT
METAR KSXT 051056Z AUTO 12015G22KT 10SM CLR 03/M01 A3034 RMK AO2
SLP283 T00281011





000
SAUS46 KMFR 050957
MTRSXT
METAR KSXT 050956Z AUTO 12015KT 10SM CLR 03/M01 A3034 RMK AO2 SLP286
T00281011





000
SAUS46 KMFR 050857
MTRSXT
METAR KSXT 050856Z AUTO 12018G24KT 10SM CLR 03/M01 A3034 RMK AO2
SLP287 T00281006 58005





000
SAUS46 KMFR 050857
MTRSXT
METAR KSXT 050856Z AUTO 12018G24KT 10SM CLR 03/M01 A3034 RMK AO2
SLP287 T00281006 58005





000
SAUS46 KMFR 050757
MTRSXT
METAR KSXT 050756Z AUTO 12015KT 10SM CLR 03/M01 A3036 RMK AO2 SLP293
T00281006 400560000





000
SAUS46 KMFR 050657
MTRSXT
METAR KSXT 050656Z AUTO 13015G22KT 10SM CLR 03/00 A3035 RMK AO2
SLP291 T00330000





000
SAUS46 KMFR 050657
MTRSXT
METAR KSXT 050656Z AUTO 13015G22KT 10SM CLR 03/00 A3035 RMK AO2
SLP291 T00330000





000
SAUS46 KMFR 050600
MTRMHS
METAR KMHS 050556Z AUTO 00000KT 10SM CLR M01/M03 A3044 RMK AO2
SLP348 T10111028 10089 21011 52001





000
SAUS46 KMFR 050600
MTRMHS
METAR KMHS 050556Z AUTO 00000KT 10SM CLR M01/M03 A3044 RMK AO2
SLP348 T10111028 10089 21011 52001





000
SAUS46 KMFR 050557
MTRSXT
METAR KSXT 050556Z AUTO 12012G20KT 10SM CLR 03/00 A3036 RMK AO2
SLP298 T00280000 10050 20028 55005





000
SAUS46 KMFR 050557
MTRSXT
METAR KSXT 050556Z AUTO 12012G20KT 10SM CLR 03/00 A3036 RMK AO2
SLP298 T00280000 10050 20028 55005





000
SAUS46 KMFR 050457
MTRSXT
METAR KSXT 050456Z AUTO 12014G20KT 10SM CLR 03/01 A3036 RMK AO2
SLP297 T00330006





000
SAUS46 KMFR 050357
MTRSXT
METAR KSXT 050356Z AUTO 12013KT 10SM CLR 03/01 A3037 RMK AO2 SLP304
T00330006





000
SAUS46 KMFR 050257
MTRSXT
METAR KSXT 050256Z AUTO 11010KT 10SM CLR 03/01 A3038 RMK AO2 SLP308
T00280006 56006





000
SAUS46 KMFR 050157
MTRSXT
METAR KSXT 050156Z AUTO 12010KT 10SM CLR 03/01 A3038 RMK AO2 SLP306
T00330006





000
SAUS46 KMFR 050157
MTRSXT
METAR KSXT 050156Z AUTO 12010KT 10SM CLR 03/01 A3038 RMK AO2 SLP306
T00330006





000
SAUS46 KMFR 050057
MTRSXT
METAR KSXT 050056Z AUTO 12007KT 10SM CLR 04/M01 A3040 RMK AO2 SLP311
T00441006





000
SAUS46 KMFR 050057
MTRSXT
METAR KSXT 050056Z AUTO 12007KT 10SM CLR 04/M01 A3040 RMK AO2 SLP311
T00441006





000
SAUS46 KMFR 042357
MTRSXT
METAR KSXT 042356Z AUTO 13007KT 10SM CLR 05/00 A3040 RMK AO2 SLP311
60017 T00500000 10056 20028 55000





000
SAUS46 KMFR 042357
MTRSXT
METAR KSXT 042356Z AUTO 13007KT 10SM CLR 05/00 A3040 RMK AO2 SLP311
60017 T00500000 10056 20028 55000





000
SAUS46 KMFR 042257
MTRSXT
METAR KSXT 042256Z AUTO 13006KT 10SM CLR 06/00 A3040 RMK AO2 SLP307
T00560000





000
SAUS46 KMFR 042157
MTRSXT
METAR KSXT 042156Z AUTO 13008KT 10SM CLR 04/01 A3039 RMK AO2 SLP308
T00440006





000
SAUS46 KMFR 042100
MTRMHS
METAR KMHS 042056Z AUTO 00000KT 10SM CLR 07/M01 A3043 RMK AO2 SLP336
T00671006 58016





000
SAUS46 KMFR 042100
MTRMHS
METAR KMHS 042056Z AUTO 00000KT 10SM CLR 07/M01 A3043 RMK AO2 SLP336
T00671006 58016





000
SAUS46 KMFR 042057
MTRSXT
METAR KSXT 042056Z AUTO 14006KT 10SM CLR 05/01 A3040 RMK AO2 SLP311
60017 T00500006 50000





000
SAUS46 KMFR 042057
MTRSXT
METAR KSXT 042056Z AUTO 14006KT 10SM CLR 05/01 A3040 RMK AO2 SLP311
60017 T00500006 50000





000
SAUS46 KMFR 041957
MTRSXT
METAR KSXT 041956Z AUTO 13007KT 10SM CLR 04/02 A3040 RMK AO2 SLP312
T00440017





000
SAUS46 KMFR 041857
MTRSXT
METAR KSXT 041856Z AUTO 13010KT 10SM CLR 04/02 A3040 RMK AO2
RAB08E27 SLP313 P0017 T00390022





000
SAUS46 KMFR 041857
MTRSXT
METAR KSXT 041856Z AUTO 13010KT 10SM CLR 04/02 A3040 RMK AO2
RAB08E27 SLP313 P0017 T00390022





000
SAUS46 KMFR 041758
MTRSXT
METAR KSXT 041756Z AUTO 16011KT 10SM SCT002 03/02 A3040 RMK AO2
SLP315 T00280022 10028 20000 50006





000
SAUS46 KMFR 041758
MTRSXT
METAR KSXT 041756Z AUTO 16011KT 10SM SCT002 03/02 A3040 RMK AO2
SLP315 T00280022 10028 20000 50006





000
SAUS46 KMFR 041750
MTRSXT
SPECI KSXT 041749Z AUTO 16012KT 10SM SCT002 03/02 A3040 RMK AO2
T00280022





000
SAUS46 KMFR 041750
MTRSXT
SPECI KSXT 041749Z AUTO 16012KT 10SM SCT002 03/02 A3040 RMK AO2
T00280022





000
SAUS46 KMFR 041739
MTRMHS
SPECI KMHS 041735Z AUTO 00000KT 10SM SCT022 01/M02 A3048 RMK AO2
T00061017





000
SAUS46 KMFR 041727
MTRSXT
SPECI KSXT 041726Z AUTO 16011KT 7SM BKN002 BKN100 02/02 A3040 RMK
AO2 T00220017





000
SAUS46 KMFR 041727
MTRSXT
SPECI KSXT 041726Z AUTO 16011KT 7SM BKN002 BKN100 02/02 A3040 RMK
AO2 T00220017





000
SAUS46 KMFR 041717
MTRMHS
SPECI KMHS 041713Z AUTO 00000KT 10SM SCT005 BKN023 M01/M02 A3048 RMK
AO2 T10061022





000
SAUS46 KMFR 041657
MTRSXT
METAR KSXT 041656Z AUTO 16009KT 9SM SCT002 BKN100 02/02 A3040 RMK
AO2 SLP317 T00220017





000
SAUS46 KMFR 041622
MTRSXT
SPECI KSXT 041620Z AUTO 17009KT 9SM SCT001 SCT080 OVC095 01/00 A3040
RMK AO2 T00060000





000
SAUS46 KMFR 041614
MTRSXT
SPECI KSXT 041613Z AUTO 18008KT 2SM BR SCT001 BKN080 OVC095 01/01
A3040 RMK AO2 T00060006





000
SAUS46 KMFR 041611
MTRSXT
SPECI KSXT 041610Z AUTO 18009KT 1 1/2SM BR BKN001 BKN075 OVC090
01/01 A3040 RMK AO2 VIS 1/2V5 T00060006





000
SAUS46 KMFR 041607
MTRSXT
SPECI KSXT 041606Z AUTO 17007KT 3/4SM BR BKN001 BKN075 OVC090 01/00
A3040 RMK AO2 VIS 1/2V2 T00060000





000
SAUS46 KMFR 041557
MTRSXT
METAR KSXT 041556Z AUTO 16009KT 1/4SM FG SCT002 OVC080 00/00 A3038
RMK AO2 SLP314 T00000000





000
SAUS46 KMFR 041549
MTRSXT
SPECI KSXT 041548Z AUTO 17011KT 1 1/4SM BR FEW002 OVC080 00/00 A3038
RMK AO2 VIS 1/2V5 T00000000





000
SAUS46 KMFR 041547
MTRSXT
SPECI KSXT 041546Z AUTO 17012KT 2SM BR FEW002 OVC080 00/00 A3038 RMK
AO2 VIS 3/4V5 T00000000





000
SAUS46 KMFR 041547
MTRSXT
SPECI KSXT 041546Z AUTO 17012KT 2SM BR FEW002 OVC080 00/00 A3038 RMK
AO2 VIS 3/4V5 T00000000





000
SAUS46 KMFR 041525
MTRMHS
SPECI KMHS 041521Z AUTO 00000KT 10SM OVC009 M02/M03 A3045 RMK AO2
T10171033





000
SAUS46 KMFR 041508
MTRMHS
SPECI KMHS 041504Z AUTO 00000KT 10SM BKN010 OVC023 M02/M03 A3044 RMK
AO2 T10171033





000
SAUS46 KMFR 041457
MTRSXT
METAR KSXT 041456Z AUTO 19009KT 10SM OVC070 01/00 A3038 RMK AO2
SLP313 T00060000 51008





000
SAUS46 KMFR 041406
MTRSXT
SPECI KSXT 041405Z AUTO 20009KT 6SM BR OVC035 01/00 A3037 RMK AO2
T00060000





000
SAUS46 KMFR 041358
MTRSXT
METAR KSXT 041356Z AUTO 19009KT 2SM BR OVC037 01/00 A3037 RMK AO2
SLP308 T00060000





000
SAUS46 KMFR 041342
MTRMHS
SPECI KMHS 041338Z AUTO 00000KT 10SM BKN009 OVC022 M01/M03 A3043 RMK
AO2 T10111028





000
SAUS46 KMFR 041329
MTRSXT
SPECI KSXT 041328Z AUTO 19009KT 1 1/4SM BR SCT002 BKN040 OVC050
01/00 A3036 RMK AO2 T00060000





000
SAUS46 KMFR 041329
MTRSXT
SPECI KSXT 041328Z AUTO 19009KT 1 1/4SM BR SCT002 BKN040 OVC050
01/00 A3036 RMK AO2 T00060000





000
SAUS46 KMFR 041326
MTRMHS
SPECI KMHS 041321Z AUTO 00000KT 10SM SCT009 OVC022 M01/M03 A3043 RMK
AO2 T10111028





000
SAUS46 KMFR 041326
MTRMHS
SPECI KMHS 041321Z AUTO 00000KT 10SM SCT009 OVC022 M01/M03 A3043 RMK
AO2 T10111028





000
SAUS46 KMFR 041321
MTRSXT
SPECI KSXT 041320Z AUTO 18010KT 1 1/2SM BR BKN002 BKN040 OVC050
01/00 A3036 RMK AO2 T00060000





000
SAUS46 KMFR 041301
MTRSXT
SPECI KSXT 041259Z AUTO 18011KT 2 1/2SM BR BKN002 00/00 A3035 RMK
AO2 VIS 1 1/2V4 T00000000





000
SAUS46 KMFR 041300
MTRMHS
METAR KMHS 041256Z AUTO 00000KT 10SM OVC021 M01/M02 A3043 RMK AO2
SNE30 SLP345 P0000 T10111022





000
SAUS46 KMFR 041300
MTRMHS
METAR KMHS 041256Z AUTO 00000KT 10SM OVC021 M01/M02 A3043 RMK AO2
SNE30 SLP345 P0000 T10111022





000
SAUS46 KMFR 041258
MTRSXT
METAR KSXT 041256Z AUTO 18010KT 3SM BR SCT002 00/00 A3035 RMK AO2
SLP306 T00000000





000
SAUS46 KMFR 041258
MTRSXT
METAR KSXT 041256Z AUTO 18010KT 3SM BR SCT002 00/00 A3035 RMK AO2
SLP306 T00000000





000
SAUS46 KMFR 041239
MTRSXT
SPECI KSXT 041238Z AUTO 18010KT 10SM SCT002 00/00 A3035 RMK AO2
T00000000





000
SAUS46 KMFR 041230
MTRSXT
SPECI KSXT 041229Z AUTO 18011KT 7SM BKN001 00/00 A3035 RMK AO2
T00000000





000
SAUS46 KMFR 041222
MTRSXT
SPECI KSXT 041220Z AUTO 18010KT 2SM BR BKN001 01/00 A3035 RMK AO2
T00060000





000
SAUS46 KMFR 041217
MTRSXT
SPECI KSXT 041216Z AUTO 18009KT 1 1/4SM BR OVC001 01/00 A3035 RMK
AO2 T00060000





000
SAUS46 KMFR 041216
MTRMHS
SPECI KMHS 041212Z AUTO 00000KT 6SM -SN BR SCT007 BKN016 OVC021
M01/M03 A3042 RMK AO2 P0000 T10111028





000
SAUS46 KMFR 041216
MTRMHS
SPECI KMHS 041212Z AUTO 00000KT 6SM -SN BR SCT007 BKN016 OVC021
M01/M03 A3042 RMK AO2 P0000 T10111028





000
SAUS46 KMFR 041158
MTRSXT
METAR KSXT 041156Z AUTO 18010KT 1/2SM FG VV001 01/00 A3034 RMK AO2
SLP299 70020 T00060000 10006 20000 53002





000
SAUS46 KMFR 041158
MTRSXT
METAR KSXT 041156Z AUTO 18010KT 1/2SM FG VV001 01/00 A3034 RMK AO2
SLP299 70020 T00060000 10006 20000 53002





000
SAUS46 KMFR 041153
MTRSXT
SPECI KSXT 041152Z AUTO 19010KT 1/2SM FG VV001 01/00 A3034 RMK AO2





000
SAUS46 KMFR 041057
MTRSXT
METAR KSXT 041056Z AUTO 19011KT 1/2SM FG VV002 01/00 A3033 RMK AO2
SLP292 T00060000





000
SAUS46 KMFR 041043
MTRMHS
SPECI KMHS 041039Z AUTO 00000KT 10SM BKN004 OVC012 M01/M02 A3042 RMK
AO2 T10061022





000
SAUS46 KMFR 041024
MTRSXT
SPECI KSXT 041023Z AUTO 20009KT 1/2SM FG VV001 01/00 A3034 RMK AO2
T00060000





000
SAUS46 KMFR 041007
MTRMHS
SPECI KMHS 041003Z AUTO 00000KT 10SM SCT004 OVC012 M01/M02 A3042 RMK
AO2 T10061017





000
SAUS46 KMFR 040957
MTRSXT
METAR KSXT 040956Z AUTO 20009KT 1/2SM FG VV002 01/00 A3033 RMK AO2
SLP297 T00060000





000
SAUS46 KMFR 040938
MTRMHS
SPECI KMHS 040934Z AUTO 00000KT 10SM BKN003 OVC013 M01/M02 A3041 RMK
AO2 T10061017





000
SAUS46 KMFR 040931
MTRSXT
SPECI KSXT 040930Z AUTO 20009G19KT 3/4SM BR VV002 00/00 A3032 RMK
AO2 VIS 1/2V2 1/2 T00000000





000
SAUS46 KMFR 040929
MTRMHS
SPECI KMHS 040925Z AUTO 00000KT 10SM SCT003 OVC013 M01/M02 A3041 RMK
AO2 T10061017





000
SAUS46 KMFR 040922
MTRSXT
SPECI KSXT 040921Z AUTO 20010G19KT 1 1/2SM BR BKN002 OVC043 01/00
A3032 RMK AO2 VIS 3/4V3 T00060000





000
SAUS46 KMFR 040922
MTRSXT
SPECI KSXT 040921Z AUTO 20010G19KT 1 1/2SM BR BKN002 OVC043 01/00
A3032 RMK AO2 VIS 3/4V3 T00060000





000
SAUS46 KMFR 040913
MTRSXT
SPECI KSXT 040912Z AUTO 19011G18KT 1/2SM FG VV002 01/00 A3032 RMK
AO2 T00060000





000
SAUS46 KMFR 040857
MTRSXT
METAR KSXT 040856Z AUTO 19010KT 1/4SM FG VV002 01/01 A3032 RMK AO2
SLP292 T00060006 51010





000
SAUS46 KMFR 040857
MTRSXT
METAR KSXT 040856Z AUTO 19010KT 1/4SM FG VV002 01/01 A3032 RMK AO2
SLP292 T00060006 51010





000
SAUS46 KMFR 040813
MTRMHS
SPECI KMHS 040809Z AUTO 00000KT 10SM BKN002 OVC008 M01/M01 A3041 RMK
AO2 T10061011





000
SAUS46 KMFR 040758
MTRSXT
METAR KSXT 040756Z AUTO 19010G17KT 1/4SM FG VV002 01/01 A3032 RMK
AO2 SLP291 T00060006 400111011





000
SAUS46 KMFR 040750
MTRSXT
SPECI KSXT 040749Z AUTO 20010G16KT 1/4SM FG VV002 01/01 A3032 RMK
AO2 T00060006





000
SAUS46 KMFR 040724
MTRMHS
SPECI KMHS 040720Z AUTO 00000KT 10SM BKN009 OVC013 00/M02 A3040 RMK
AO2 T00001017





000
SAUS46 KMFR 040714
MTRMHS
SPECI KMHS 040710Z AUTO 00000KT 10SM OVC011 00/M02 A3040 RMK AO2
T00001017





000
SAUS46 KMFR 040657
MTRSXT
METAR KSXT 040656Z AUTO 20010KT 1/4SM FG VV001 01/01 A3030 RMK AO2
SLP285 T00060006





000
SAUS46 KMFR 040650
MTRMHS
SPECI KMHS 040646Z AUTO 00000KT 10SM OVC009 00/M02 A3039 RMK AO2 CIG
008V012 T00001017





000
SAUS46 KMFR 040650
MTRMHS
SPECI KMHS 040646Z AUTO 00000KT 10SM OVC009 00/M02 A3039 RMK AO2 CIG
008V012 T00001017





000
SAUS46 KMFR 040636
MTRMHS
SPECI KMHS 040632Z AUTO VRB03KT 10SM BKN010 00/M02 A3038 RMK AO2 CIG
008V013 T00001022





000
SAUS46 KMFR 040636
MTRMHS
SPECI KMHS 040632Z AUTO VRB03KT 10SM BKN010 00/M02 A3038 RMK AO2 CIG
008V013 T00001022





000
SAUS46 KMFR 040609
MTRSXT
SPECI KSXT 040608Z AUTO 19008KT 1/4SM FG BKN001 OVC028 01/01 A3029
RMK AO2 T00060006





000
SAUS46 KMFR 040609
MTRSXT
SPECI KSXT 040608Z AUTO 19008KT 1/4SM FG BKN001 OVC028 01/01 A3029
RMK AO2 T00060006





000
SAUS46 KMFR 040558
MTRSXT
METAR KSXT 040556Z AUTO 21009KT 1/2SM FG BKN001 BKN009 OVC029 01/01
A3028 RMK AO2 SLP280 60004 T00060006 10006 20000 51014





000
SAUS46 KMFR 040553
MTRSXT
SPECI KSXT 040552Z AUTO 22009KT 3/4SM BR BKN001 BKN009 OVC029 01/01
A3029 RMK AO2





000
SAUS46 KMFR 040553
MTRSXT
SPECI KSXT 040552Z AUTO 22009KT 3/4SM BR BKN001 BKN009 OVC029 01/01
A3029 RMK AO2





000
SAUS46 KMFR 040457
MTRSXT
METAR KSXT 040456Z AUTO 20009KT 1/4SM FG VV001 01/01 A3027 RMK AO2
SLP276 T00060006





000
SAUS46 KMFR 040357
MTRSXT
METAR KSXT 040356Z AUTO 20010KT 1/4SM FG VV001 01/01 A3024 RMK AO2
SLP266 T00060006





000
SAUS46 KMFR 040355
MTRSXT
SPECI KSXT 040354Z AUTO 20011KT 1/4SM FG VV001 01/01 A3024 RMK AO2





000
SAUS46 KMFR 040316
MTRMHS
SPECI KMHS 040312Z AUTO 12003KT 10SM OVC031 01/M02 A3033 RMK AO2
T00061022





000
SAUS46 KMFR 040316
MTRMHS
SPECI KMHS 040312Z AUTO 12003KT 10SM OVC031 01/M02 A3033 RMK AO2
T00061022





000
SAUS46 KMFR 040314
MTRSXT
SPECI KSXT 040313Z AUTO 21010KT 1/4SM FG VV002 01/01 A3023 RMK AO2
T00060006





000
SAUS46 KMFR 040314
MTRSXT
SPECI KSXT 040313Z AUTO 21010KT 1/4SM FG VV002 01/01 A3023 RMK AO2
T00060006





000
SAUS46 KMFR 040257
MTRSXT
METAR KSXT 040256Z AUTO 20010KT 1/2SM FG VV003 01/00 A3022 RMK AO2
SLP260 P0004 60004 T00060000 53023





000
SAUS46 KMFR 040257
MTRSXT
METAR KSXT 040256Z AUTO 20010KT 1/2SM FG VV003 01/00 A3022 RMK AO2
SLP260 P0004 60004 T00060000 53023





000
SAUS46 KMFR 040232
MTRMHS
SPECI KMHS 040228Z AUTO 10005KT 9SM BKN029 BKN033 OVC080 01/M02
A3031 RMK AO2 SNE25 P0000 T00061022





000
SAUS46 KMFR 040157
MTRMHS
METAR KMHS 040156Z AUTO 09005KT 1 3/4SM -SN BR OVC019 00/M02 A3030
RMK AO2 SLP300 P0002 T00001017





000
SAUS46 KMFR 040157
MTRSXT
METAR KSXT 040156Z AUTO 19010KT 1/2SM FG VV003 00/00 A3019 RMK AO2
SNB14E49 SLP252 P0000 T00000000





000
SAUS46 KMFR 040147
MTRSXT
SPECI KSXT 040145Z AUTO 20011KT 1/2SM -SN FG VV002 00/00 A3019 RMK
AO2 SNB14 P0000 T00000000





000
SAUS46 KMFR 040147
MTRSXT
SPECI KSXT 040145Z AUTO 20011KT 1/2SM -SN FG VV002 00/00 A3019 RMK
AO2 SNB14 P0000 T00000000





000
SAUS46 KMFR 040143
MTRMHS
SPECI KMHS 040139Z AUTO VRB03KT 1 1/4SM -SN BR OVC019 01/M02 A3029
RMK AO2 P0001 T00061017





000
SAUS46 KMFR 040138
MTRMHS
SPECI KMHS 040134Z AUTO 10005KT 2SM -SN BR OVC023 01/M02 A3029 RMK
AO2 P0000 T00061017





000
SAUS46 KMFR 040058
MTRSXT
METAR KSXT 040056Z AUTO 18013KT 1/4SM FG VV002 00/00 A3016 RMK AO2
SNE50 SLP240 P0000 T00000000





000
SAUS46 KMFR 040058
MTRSXT
METAR KSXT 040056Z AUTO 18013KT 1/4SM FG VV002 00/00 A3016 RMK AO2
SNE50 SLP240 P0000 T00000000





000
SAUS46 KMFR 040046
MTRSXT
SPECI KSXT 040045Z AUTO 18014G19KT 1/4SM -SN FG VV002 00/00 A3016
RMK AO2 P0000 T00000000





000
SAUS46 KMFR 040046
MTRSXT
SPECI KSXT 040045Z AUTO 18014G19KT 1/4SM -SN FG VV002 00/00 A3016
RMK AO2 P0000 T00000000





000
SAUS46 KMFR 040038
MTRMHS
SPECI KMHS 040034Z AUTO 3SM -SN BR BKN015 OVC022 01/M02 A3027 RMK
AO2 P0002 T00061017





000
SAUS46 KMFR 040032
MTRMHS
SPECI KMHS 040028Z AUTO 11004KT 1 1/2SM -SN BR OVC015 01/M01 A3027
RMK AO2 P0002 T00061011





000
SAUS46 KMFR 040025
MTRMHS
SPECI KMHS 040020Z AUTO 00000KT 1SM -SN BR VV013 01/M01 A3028 RMK
AO2 P0001 T00061011





000
SAUS46 KMFR 040025
MTRMHS
SPECI KMHS 040020Z AUTO 00000KT 1SM -SN BR VV013 01/M01 A3028 RMK
AO2 P0001 T00061011





000
SAUS46 KMFR 040000
MTRMHS
METAR KMHS 032356Z AUTO 12003KT 3/4SM -SN BR VV012 01/M01 A3028 RMK
AO2 SLP295 P0002 60002 T00061011 10022 20006 53008





000
SAUS46 KMFR 040000
MTRMHS
METAR KMHS 032356Z AUTO 12003KT 3/4SM -SN BR VV012 01/M01 A3028 RMK
AO2 SLP295 P0002 60002 T00061011 10022 20006 53008





000
SAUS46 KMFR 032357
MTRSXT
METAR KSXT 032356Z AUTO 19011G18KT M1/4SM -SN FG VV001 01/01 A3014
RMK AO2 UPB21E55SNB55 SLP233 P0000 60016 T00060006 10011 21006 53021





000
SAUS46 KMFR 032346
MTRMHS
SPECI KMHS 032342Z AUTO 11003KT 1/2SM SN FG VV013 01/M01 A3028 RMK
AO2 P0001 T00061011





000
SAUS46 KMFR 032346
MTRMHS
SPECI KMHS 032342Z AUTO 11003KT 1/2SM SN FG VV013 01/M01 A3028 RMK
AO2 P0001 T00061011





000
SAUS46 KMFR 032337
MTRMHS
SPECI KMHS 032333Z AUTO 12004KT 3/4SM -SN BR VV015 01/M01 A3028 RMK
AO2 P0001 T00061011





000
SAUS46 KMFR 032329
MTRMHS
SPECI KMHS 032325Z AUTO VRB03KT 1SM -SN BR FEW006 OVC018 01/M01
A3027 RMK AO2 P0000 T00061011





000
SAUS46 KMFR 032329
MTRMHS
SPECI KMHS 032325Z AUTO VRB03KT 1SM -SN BR FEW006 OVC018 01/M01
A3027 RMK AO2 P0000 T00061011





000
SAUS46 KMFR 032316
MTRMHS
SPECI KMHS 032312Z AUTO 00000KT 1 1/2SM -SN BR FEW006 OVC022 01/M01
A3027 RMK AO2 P0000 T00061011





000
SAUS46 KMFR 032257
MTRSXT
METAR KSXT 032256Z AUTO 18015G22KT M1/4SM FG VV001 01/01 A3011 RMK
AO2 PK WND 20031/2225 UPB02E39SNE02 SLP222 P0011 T00110006





000
SAUS46 KMFR 032257
MTRSXT
METAR KSXT 032256Z AUTO 18015G22KT M1/4SM FG VV001 01/01 A3011 RMK
AO2 PK WND 20031/2225 UPB02E39SNE02 SLP222 P0011 T00110006





000
SAUS46 KMFR 032247
MTRMHS
SPECI KMHS 032243Z AUTO VRB03KT 5SM -SN BR BKN027 OVC036 01/M01
A3025 RMK AO2 P0000 T00111011





000
SAUS46 KMFR 032247
MTRMHS
SPECI KMHS 032243Z AUTO VRB03KT 5SM -SN BR BKN027 OVC036 01/M01
A3025 RMK AO2 P0000 T00111011





000
SAUS46 KMFR 032245
MTRSXT
SPECI KSXT 032244Z AUTO 19014G22KT M1/4SM FG VV001 01/01 A3011 RMK
AO2 PK WND 20031/2225 UPB02E39SNE02 P0010 T00110006





000
SAUS46 KMFR 032216
MTRSXT
SPECI KSXT 032215Z AUTO 19015G26KT 1/4SM UP FG BKN004 OVC008 01/01
A3010 RMK AO2 PK WND 19026/2212 UPB02SNE02 P0002 T00110006





000
SAUS46 KMFR 032216
MTRSXT
SPECI KSXT 032215Z AUTO 19015G26KT 1/4SM UP FG BKN004 OVC008 01/01
A3010 RMK AO2 PK WND 19026/2212 UPB02SNE02 P0002 T00110006





000
SAUS46 KMFR 032211
MTRSXT
SPECI KSXT 032210Z AUTO 18015G23KT 1SM UP BR BKN006 OVC010 01/00
A3009 RMK AO2 UPB02SNE02 P0002 T00060000





000
SAUS46 KMFR 032205
MTRMHS
SPECI KMHS 032204Z AUTO VRB05KT 3SM -SN SCT020 SCT027 OVC036 01/M02
A3024 RMK AO2 P0000 T00111017





000
SAUS46 KMFR 032201
MTRMHS
SPECI KMHS 032200Z AUTO 13004KT 2 1/2SM -SN SCT020 BKN028 OVC040
01/M02 A3025 RMK AO2 P0000 T00111017





000
SAUS46 KMFR 032157
MTRSXT
METAR KSXT 032156Z AUTO 17013G21KT 8SM -SN BKN008 OVC016 01/00 A3008
RMK AO2 RAB01E25UPB25E30B41E45SNB30E41B45 SLP212 P0005 T00060000





000
SAUS46 KMFR 032157
MTRSXT
METAR KSXT 032156Z AUTO 17013G21KT 8SM -SN BKN008 OVC016 01/00 A3008
RMK AO2 RAB01E25UPB25E30B41E45SNB30E41B45 SLP212 P0005 T00060000





000
SAUS46 KMFR 032135
MTRSXT
SPECI KSXT 032134Z AUTO 17012KT 6SM -SN BR OVC016 01/M01 A3008 RMK
AO2 RAB01E25UPB25E30SNB30 P0002 T00061006





000
SAUS46 KMFR 032121
MTRMHS
SPECI KMHS 032117Z AUTO VRB04KT 10SM FEW022 SCT029 OVC036 02/M03
A3026 RMK AO2 T00171033





000
SAUS46 KMFR 032113
MTRMHS
SPECI KMHS 032109Z AUTO VRB03KT 10SM FEW022 BKN029 OVC036 02/M04
A3025 RMK AO2 T00221039





000
SAUS46 KMFR 032108
MTRSXT
SPECI KSXT 032107Z AUTO 14012KT 10SM -RA OVC012 01/M01 A3007 RMK AO2
RAB01 P0000 T00061006





000
SAUS46 KMFR 032108
MTRSXT
SPECI KSXT 032107Z AUTO 14012KT 10SM -RA OVC012 01/M01 A3007 RMK AO2
RAB01 P0000 T00061006





000
SAUS46 KMFR 032058
MTRSXT
METAR KSXT 032056Z AUTO 16012KT 10SM OVC009 01/M01 A3007 RMK AO2
SLP209 60000 T00061006 58006





000
SAUS46 KMFR 032043
MTRSXT
SPECI KSXT 032042Z AUTO 16014KT 6SM BR OVC008 00/M01 A3007 RMK AO2
T00001011





000
SAUS46 KMFR 032033
MTRSXT
SPECI KSXT 032032Z AUTO 17014KT 8SM BKN010 OVC013 01/M01 A3008 RMK
AO2 T00061011





000
SAUS46 KMFR 032025
MTRSXT
SPECI KSXT 032024Z AUTO 17014KT 9SM BKN008 OVC013 01/M01 A3008 RMK
AO2 T00061011





000
SAUS46 KMFR 032025
MTRSXT
SPECI KSXT 032024Z AUTO 17014KT 9SM BKN008 OVC013 01/M01 A3008 RMK
AO2 T00061011





000
SAUS46 KMFR 032000
MTRMHS
METAR KMHS 031956Z AUTO 00000KT 10SM OVC037 02/M03 A3027 RMK AO2
SLP292 T00171028





000
SAUS46 KMFR 031957
MTRSXT
METAR KSXT 031956Z AUTO 17013G18KT 10SM OVC013 01/M01 A3008 RMK AO2
SLP212 T00061011





000
SAUS46 KMFR 031857
MTRSXT
METAR KSXT 031856Z AUTO 14013KT 10SM OVC013 00/M02 A3009 RMK AO2
UPB11E22 SLP217 P0000 T00001017





000
SAUS46 KMFR 031857
MTRSXT
METAR KSXT 031856Z AUTO 14013KT 10SM OVC013 00/M02 A3009 RMK AO2
UPB11E22 SLP217 P0000 T00001017





000
SAUS46 KMFR 031828
MTRMHS
SPECI KMHS 031824Z AUTO 13004KT 10SM SCT028 OVC038 02/M04 A3028 RMK
AO2 T00171039





000
SAUS46 KMFR 031828
MTRMHS
SPECI KMHS 031824Z AUTO 13004KT 10SM SCT028 OVC038 02/M04 A3028 RMK
AO2 T00171039





000
SAUS46 KMFR 031800
MTRMHS
METAR KMHS 031756Z AUTO 15003KT 10SM BKN029 OVC035 02/M04 A3027 RMK
AO2 SLP288 T00171044 10017 21017 51008





000
SAUS46 KMFR 031800
MTRMHS
METAR KMHS 031756Z AUTO 15003KT 10SM BKN029 OVC035 02/M04 A3027 RMK
AO2 SLP288 T00171044 10017 21017 51008





000
SAUS46 KMFR 031757
MTRSXT
METAR KSXT 031756Z AUTO 15014G20KT 10SM OVC014 00/M02 A3010 RMK AO2
UPE1658 SLP218 P0000 60000 T00001022 10000 21011 55005





000
SAUS46 KMFR 031757
MTRSXT
METAR KSXT 031756Z AUTO 15014G20KT 10SM OVC014 00/M02 A3010 RMK AO2
UPE1658 SLP218 P0000 60000 T00001022 10000 21011 55005





000
SAUS46 KMFR 031714
MTRSXT
SPECI KSXT 031712Z AUTO 14014KT 10SM OVC013 M01/M02 A3008 RMK AO2
UPE1658 P0000 T10111022





000
SAUS46 KMFR 031714
MTRSXT
SPECI KSXT 031712Z AUTO 14014KT 10SM OVC013 M01/M02 A3008 RMK AO2
UPE1658 P0000 T10111022





000
SAUS46 KMFR 031706
MTRSXT
SPECI KSXT 031705Z AUTO 13015KT 10SM OVC015 M01/M02 A3008 RMK AO2
UPE1658 P0000 T10111022





000
SAUS46 KMFR 031706
MTRSXT
SPECI KSXT 031705Z AUTO 13015KT 10SM OVC015 M01/M02 A3008 RMK AO2
UPE1658 P0000 T10111022





000
SAUS46 KMFR 031700
MTRMHS
METAR KMHS 031656Z AUTO 00000KT 10SM OVC042 01/M04 A3027 RMK AO2
SLP288 T00061039





000
SAUS46 KMFR 031700
MTRMHS
METAR KMHS 031656Z AUTO 00000KT 10SM OVC042 01/M04 A3027 RMK AO2
SLP288 T00061039





000
SAUS46 KMFR 031657
MTRSXT
METAR KSXT 031656Z AUTO 13016KT 10SM UP BKN014 OVC021 M01/M02 A3008
RMK AO2 UPB12E27B49 SLP215 P0000 T10111022





000
SAUS46 KMFR 031657
MTRSXT
METAR KSXT 031656Z AUTO 13016KT 10SM UP BKN014 OVC021 M01/M02 A3008
RMK AO2 UPB12E27B49 SLP215 P0000 T10111022





000
SAUS46 KMFR 031645
MTRSXT
SPECI KSXT 031644Z AUTO 14015G20KT 10SM BKN014 OVC021 M01/M02 A3010
RMK AO2 UPB12E27 P0000 T10111022





000
SAUS46 KMFR 031600
MTRMHS
METAR KMHS 031556Z AUTO 00000KT 10SM BKN037 OVC046 00/M04 A3026 RMK
AO2 SLP286 T00001039





000
SAUS46 KMFR 031557
MTRSXT
METAR KSXT 031556Z AUTO 14013KT 10SM OVC016 M01/M02 A3012 RMK AO2
SLP226 T10111022





000
SAUS46 KMFR 031557
MTRSXT
METAR KSXT 031556Z AUTO 14013KT 10SM OVC016 M01/M02 A3012 RMK AO2
SLP226 T10111022





000
SAUS46 KMFR 031500
MTRMHS
METAR KMHS 031456Z AUTO 00000KT 10SM OVC048 M01/M04 A3024 RMK AO2
SLP281 T10061039 53002





000
SAUS46 KMFR 031457
MTRSXT
METAR KSXT 031456Z AUTO 14013KT 10SM BKN026 OVC034 M01/M02 A3011 RMK
AO2 SLP225 60000 T10111022 57004





000
SAUS46 KMFR 031416
MTRSXT
SPECI KSXT 031415Z AUTO 16013KT 10SM BKN027 OVC044 M01/M02 A3012 RMK
AO2 T10111022





000
SAUS46 KMFR 031400
MTRMHS
METAR KMHS 031356Z AUTO 00000KT 10SM OVC055 M01/M04 A3023 RMK AO2
SLP278 T10111039





000
SAUS46 KMFR 031357
MTRSXT
METAR KSXT 031356Z AUTO 15013KT 10SM FEW038 OVC048 M01/M02 A3011 RMK
AO2 UPB1257E47 SLP225 P0000 T10111017





000
SAUS46 KMFR 031343
MTRSXT
SPECI KSXT 031341Z AUTO 16011KT 10SM UP SCT025 SCT038 OVC050 M01/M02
A3012 RMK AO2 UPB1257 P0000 T10061017





000
SAUS46 KMFR 031300
MTRMHS
METAR KMHS 031256Z AUTO 00000KT 10SM OVC065 M01/M03 A3024 RMK AO2
SLP277 T10111033





000
SAUS46 KMFR 031257
MTRSXT
METAR KSXT 031256Z AUTO 15011KT 10SM OVC027 M01/M02 A3013 RMK AO2
UPB00E46SNB26E36 SLP227 P0000 T10061022





000
SAUS46 KMFR 031257
MTRSXT
METAR KSXT 031256Z AUTO 15011KT 10SM OVC027 M01/M02 A3013 RMK AO2
UPB00E46SNB26E36 SLP227 P0000 T10061022





000
SAUS46 KMFR 031252
MTRSXT
SPECI KSXT 031251Z AUTO 15012KT 10SM FEW021 OVC027 M01/M02 A3013 RMK
AO2 UPB00E46SNB26E36 P0000





000
SAUS46 KMFR 031200
MTRMHS
METAR KMHS 031156Z AUTO 00000KT 10SM OVC060 M02/M04 A3023 RMK AO2
SLP276 70001 I6000 T10171039 11011 21033 50000





000
SAUS46 KMFR 031200
MTRMHS
METAR KMHS 031156Z AUTO 00000KT 10SM OVC060 M02/M04 A3023 RMK AO2
SLP276 70001 I6000 T10171039 11011 21033 50000





000
SAUS46 KMFR 031157
MTRSXT
METAR KSXT 031156Z AUTO 16013KT 10SM SCT025 OVC034 M01/M02 A3013 RMK
AO2 SLP230 I6000 T10061022 11006 21011 56003





000
SAUS46 KMFR 031157
MTRSXT
METAR KSXT 031156Z AUTO 16013KT 10SM SCT025 OVC034 M01/M02 A3013 RMK
AO2 SLP230 I6000 T10061022 11006 21011 56003





    US Dept of Commerce
    National Oceanic and Atmospheric Administration
    National Weather Service
    1325 East West Highway
    Silver Spring, MD 20910
    Page Author: NWS Internet Services Team
Disclaimer
Information Quality
Credits
Glossary
Privacy Policy
Freedom of Information Act (FOIA)
About Us
Career Opportunities